createdAt,value
2022-10-05T00:01:54.449Z,6.00
2022-10-05T00:04:27.681Z,6.80
2022-10-05T00:07:08.536Z,5.70
2022-10-05T00:09:35.225Z,2.70
2022-10-05T00:12:22.929Z,5.00
2022-10-05T00:14:53.268Z,4.90
2022-10-05T00:17:22.881Z,6.30
2022-10-05T00:19:52.252Z,3.00
2022-10-05T00:22:33.433Z,8.20
2022-10-05T00:25:02.042Z,4.30
2022-10-05T00:27:36.886Z,4.80
2022-10-05T00:30:16.359Z,3.60
2022-10-05T00:32:44.108Z,2.00
2022-10-05T00:35:13.289Z,3.00
2022-10-05T00:37:40.767Z,3.50
2022-10-05T00:40:21.836Z,2.40
2022-10-05T00:42:55.976Z,3.20
2022-10-05T00:45:35.472Z,3.00
2022-10-05T00:48:18.449Z,4.80
2022-10-05T00:50:48.173Z,3.20
2022-10-05T00:53:19.847Z,4.90
2022-10-05T00:56:02.636Z,5.20
2022-10-05T00:58:29.611Z,3.40
2022-10-05T01:01:17.153Z,3.00
2022-10-05T01:03:56.701Z,4.40
2022-10-05T01:06:29.538Z,2.30
2022-10-05T01:09:31.026Z,4.10
2022-10-05T01:12:40.030Z,3.60
2022-10-05T01:15:34.859Z,5.70
2022-10-05T01:18:23.221Z,2.90
2022-10-05T01:21:12.394Z,3.40
2022-10-05T01:24:04.109Z,3.30
2022-10-05T01:27:02.112Z,2.60
2022-10-05T01:29:57.798Z,3.40
2022-10-05T01:32:34.863Z,2.20
2022-10-05T01:35:21.930Z,4.10
2022-10-05T01:38:04.247Z,3.50
2022-10-05T01:40:42.720Z,2.50
2022-10-05T01:43:17.903Z,3.60
2022-10-05T01:46:03.025Z,5.30
2022-10-05T01:49:08.393Z,1.90
2022-10-05T01:52:07.406Z,9.20
2022-10-05T01:54:57.449Z,3.00
2022-10-05T01:58:05.586Z,3.50
2022-10-05T02:00:40.398Z,2.50
2022-10-05T02:03:19.059Z,8.00
2022-10-05T02:06:05.927Z,5.30
2022-10-05T02:09:06.007Z,2.80
2022-10-05T02:11:34.041Z,3.50
2022-10-05T02:14:31.436Z,3.60
2022-10-05T02:17:05.122Z,3.70
2022-10-05T02:19:42.334Z,4.10
2022-10-05T02:22:18.126Z,4.70
2022-10-05T02:24:51.532Z,2.10
2022-10-05T02:27:25.755Z,2.40
2022-10-05T02:29:59.397Z,3.20
2022-10-05T02:32:34.810Z,3.00
2022-10-05T02:35:11.789Z,2.50
2022-10-05T02:37:45.868Z,2.80
2022-10-05T02:40:40.875Z,2.60
2022-10-05T02:43:39.609Z,3.30
2022-10-05T02:46:10.479Z,5.30
2022-10-05T02:48:53.649Z,3.00
2022-10-05T02:51:26.739Z,5.10
2022-10-05T02:54:12.529Z,3.10
2022-10-05T02:57:04.471Z,3.40
2022-10-05T02:59:40.015Z,2.90
2022-10-05T03:02:12.453Z,3.40
2022-10-05T03:05:07.853Z,4.60
2022-10-05T03:08:05.103Z,2.80
2022-10-05T03:11:00.035Z,6.30
2022-10-05T03:13:55.130Z,4.40
2022-10-05T03:16:51.312Z,6.70
2022-10-05T03:19:42.580Z,3.30
2022-10-05T03:22:21.646Z,4.40
2022-10-05T03:25:16.876Z,5.80
2022-10-05T03:27:46.994Z,3.40
2022-10-05T03:30:22.386Z,3.90
2022-10-05T03:32:56.502Z,3.00
2022-10-05T03:35:35.589Z,3.10
2022-10-05T03:38:17.447Z,4.50
2022-10-05T03:40:53.814Z,6.40
2022-10-05T03:43:26.895Z,4.00
2022-10-05T03:46:07.873Z,4.70
2022-10-05T03:48:47.831Z,2.50
2022-10-05T03:51:23.693Z,3.90
2022-10-05T03:53:56.931Z,3.30
2022-10-05T03:56:50.255Z,5.80
2022-10-05T03:59:51.914Z,3.90
2022-10-05T04:02:29.079Z,3.20
2022-10-05T04:05:09.413Z,7.50
2022-10-05T04:07:46.150Z,3.40
2022-10-05T04:10:21.463Z,2.50
2022-10-05T04:12:55.189Z,2.50
2022-10-05T04:15:45.758Z,5.10
2022-10-05T04:18:22.900Z,6.00
2022-10-05T04:20:53.248Z,4.60
2022-10-05T04:23:35.560Z,5.80
2022-10-05T04:26:08.986Z,5.00
2022-10-05T04:29:16.913Z,5.40
2022-10-05T04:32:19.348Z,7.40
2022-10-05T04:34:55.564Z,5.50
2022-10-05T04:37:37.357Z,5.10
2022-10-05T04:40:23.409Z,6.10
2022-10-05T04:42:59.597Z,7.50
2022-10-05T04:45:44.977Z,7.80
2022-10-05T04:48:40.086Z,11.00
2022-10-05T04:51:37.203Z,13.60
2022-10-05T04:54:53.218Z,13.50
2022-10-05T04:57:31.159Z,9.00
2022-10-05T05:00:05.336Z,6.50
2022-10-05T05:02:38.141Z,7.20
2022-10-05T05:05:24.123Z,7.50
2022-10-05T05:08:28.440Z,5.70
2022-10-05T05:11:15.827Z,10.80
2022-10-05T05:14:15.113Z,9.50
2022-10-05T05:17:12.896Z,8.00
2022-10-05T05:20:13.342Z,11.70
2022-10-05T05:22:53.358Z,5.50
2022-10-05T05:25:27.179Z,7.20
2022-10-05T05:28:06.320Z,8.20
2022-10-05T05:30:53.520Z,20.70
2022-10-05T05:33:35.144Z,8.60
2022-10-05T05:36:13.456Z,12.00
2022-10-05T05:39:00.272Z,8.50
2022-10-05T05:41:36.690Z,14.70
2022-10-05T05:44:24.703Z,7.80
2022-10-05T05:47:04.041Z,5.50
2022-10-05T05:49:44.248Z,7.30
2022-10-05T05:52:16.937Z,7.10
2022-10-05T05:54:56.873Z,7.10
2022-10-05T05:57:46.576Z,10.00
2022-10-05T06:00:14.495Z,6.00
2022-10-05T06:02:56.065Z,10.40
2022-10-05T06:05:30.899Z,10.90
2022-10-05T06:08:08.676Z,5.20
2022-10-05T06:10:43.985Z,4.70
2022-10-05T06:13:44.686Z,6.40
2022-10-05T06:16:29.972Z,7.10
2022-10-05T06:19:11.250Z,12.40
2022-10-05T06:22:04.971Z,6.20
2022-10-05T06:25:13.584Z,9.80
2022-10-05T10:21:18.931Z,2.70
2022-10-05T10:24:14.910Z,6.80
2022-10-05T10:26:55.620Z,2.70
2022-10-05T10:30:13.491Z,3.10
2022-10-05T10:33:05.036Z,2.30
2022-10-05T10:35:40.616Z,2.70
2022-10-05T10:38:58.083Z,4.00
2022-10-05T10:41:31.619Z,3.00
2022-10-05T10:44:02.025Z,2.60
2022-10-05T10:46:40.932Z,1.80
2022-10-05T10:49:43.831Z,3.00
2022-10-05T10:52:21.434Z,1.80
2022-10-05T10:55:14.826Z,2.10
2022-10-05T10:57:47.153Z,2.30
2022-10-05T11:00:42.948Z,8.40
2022-10-05T11:03:31.680Z,3.00
2022-10-05T11:06:21.418Z,3.00
2022-10-05T11:09:01.767Z,3.40
2022-10-05T11:12:10.275Z,4.20
2022-10-05T11:15:06.415Z,3.90
2022-10-05T11:17:48.501Z,2.20
2022-10-05T11:20:38.029Z,4.10
2022-10-05T11:23:14.458Z,2.50
2022-10-05T11:26:10.995Z,3.20
2022-10-05T11:29:05.904Z,2.30
2022-10-05T11:34:28.090Z,3.50
2022-10-05T11:37:00.945Z,3.10
2022-10-05T11:39:43.940Z,3.40
2022-10-05T11:42:30.641Z,6.20
2022-10-05T11:45:06.254Z,4.40
2022-10-05T11:48:10.194Z,4.70
2022-10-05T11:50:51.263Z,4.60
2022-10-05T11:53:34.518Z,5.20
2022-10-05T11:56:07.441Z,9.30
2022-10-05T11:58:51.166Z,3.50
2022-10-05T12:01:26.596Z,4.10
2022-10-05T12:04:31.496Z,4.10
2022-10-05T12:07:09.038Z,5.00
2022-10-05T12:10:04.885Z,3.60
2022-10-05T12:12:54.844Z,4.10
2022-10-05T12:15:31.354Z,5.40
2022-10-05T12:18:07.771Z,6.10
2022-10-05T12:20:34.593Z,2.90
2022-10-05T12:23:14.288Z,2.70
2022-10-05T12:26:04.927Z,2.40
2022-10-05T12:28:42.590Z,3.10
2022-10-05T12:31:43.377Z,4.10
2022-10-05T12:34:27.627Z,3.90
2022-10-05T12:37:05.054Z,4.40
2022-10-05T12:39:37.833Z,3.40
2022-10-05T12:42:28.146Z,4.30
2022-10-05T12:45:16.773Z,4.70
2022-10-05T12:48:08.770Z,2.80
2022-10-05T12:51:15.869Z,4.00
2022-10-05T12:53:43.011Z,5.10
2022-10-05T12:56:16.641Z,2.50
2022-10-05T12:58:55.777Z,4.10
2022-10-05T13:01:47.118Z,5.20
2022-10-05T13:04:13.992Z,5.60
2022-10-05T13:07:11.562Z,4.20
2022-10-05T13:10:17.270Z,4.60
2022-10-05T13:13:04.724Z,2.50
2022-10-05T13:15:34.471Z,6.70
2022-10-05T13:18:13.402Z,3.70
2022-10-05T13:20:46.552Z,2.40
2022-10-05T13:23:26.057Z,5.80
2022-10-05T13:26:07.226Z,2.80
2022-10-05T13:28:46.132Z,4.00
2022-10-05T13:31:19.713Z,2.00
2022-10-05T13:34:33.570Z,2.30
2022-10-05T13:37:18.440Z,3.30
2022-10-05T13:40:16.616Z,2.60
2022-10-05T13:42:53.481Z,3.00
2022-10-05T13:45:26.033Z,3.40
2022-10-05T13:48:10.439Z,2.90
2022-10-05T13:50:58.052Z,4.60
2022-10-05T13:53:44.048Z,4.80
2022-10-05T13:56:37.034Z,4.90
2022-10-05T13:59:25.501Z,4.90
2022-10-05T14:01:58.959Z,2.80
2022-10-05T14:04:42.892Z,4.20
2022-10-05T14:07:38.262Z,1.70
2022-10-05T14:10:12.306Z,4.90
2022-10-05T14:12:42.071Z,4.10
2022-10-05T14:15:31.942Z,3.90
2022-10-05T14:17:59.151Z,1.90
2022-10-05T14:20:30.836Z,2.90
2022-10-05T14:23:01.469Z,2.20
2022-10-05T14:25:30.641Z,2.80
2022-10-05T14:28:23.825Z,3.30
2022-10-05T14:30:59.470Z,3.80
2022-10-05T14:33:32.154Z,9.50
2022-10-05T14:35:59.482Z,6.60
2022-10-05T14:38:28.896Z,5.60
2022-10-05T14:41:07.588Z,4.90
2022-10-05T14:43:35.369Z,6.00
2022-10-05T14:46:24.990Z,4.30
2022-10-05T14:49:21.451Z,5.50
2022-10-05T14:51:52.892Z,3.20
2022-10-05T14:54:34.745Z,5.10
2022-10-05T14:57:32.952Z,4.80
2022-10-05T15:00:11.506Z,5.80
2022-10-05T15:02:53.749Z,7.30
2022-10-05T15:05:42.206Z,7.20
2022-10-05T15:08:24.385Z,7.20
2022-10-05T15:11:05.882Z,6.70
2022-10-05T15:13:38.541Z,5.60
2022-10-05T15:16:18.418Z,6.80
2022-10-05T15:19:00.666Z,6.30
2022-10-05T15:22:00.618Z,6.40
2022-10-05T15:25:07.827Z,5.20
2022-10-05T15:27:48.976Z,5.40
2022-10-05T15:30:17.817Z,7.50
2022-10-05T15:33:05.607Z,15.50
2022-10-05T15:35:39.753Z,12.20
2022-10-05T15:38:20.645Z,15.00
2022-10-05T15:40:50.128Z,12.90
2022-10-05T15:43:20.422Z,11.40
2022-10-05T15:46:33.711Z,9.60
2022-10-05T15:49:37.709Z,8.80
2022-10-05T15:52:25.838Z,10.30
2022-10-05T15:55:01.050Z,9.90
2022-10-05T15:57:49.977Z,15.00
2022-10-05T16:00:21.675Z,18.30
2022-10-05T16:02:57.651Z,27.00
2022-10-05T16:05:52.750Z,18.20
2022-10-05T16:08:51.077Z,41.30
2022-10-05T16:11:31.338Z,41.80
2022-10-05T16:14:12.791Z,41.30
2022-10-05T16:16:59.422Z,37.60
2022-10-05T16:19:56.523Z,32.60
2022-10-05T16:22:43.396Z,43.00
2022-10-05T16:25:21.840Z,26.90
2022-10-05T16:28:05.670Z,30.10
2022-10-05T16:30:58.252Z,60.40
2022-10-05T16:33:53.650Z,49.10
2022-10-05T16:36:40.135Z,47.40
2022-10-05T16:39:22.615Z,48.50
2022-10-05T16:42:03.378Z,122.10
2022-10-05T16:44:42.335Z,77.60
2022-10-05T16:47:42.439Z,64.70
2022-10-05T16:50:24.473Z,56.50
2022-10-05T16:53:21.470Z,53.30
2022-10-05T16:55:55.034Z,42.50
2022-10-05T16:58:39.893Z,47.30
2022-10-05T17:01:31.341Z,37.00
2022-10-05T17:04:31.278Z,26.40
2022-10-05T17:07:31.302Z,25.70
2022-10-05T17:10:10.254Z,51.90
2022-10-05T17:12:44.891Z,69.30
2022-10-05T17:15:29.724Z,62.20
2022-10-05T17:18:23.128Z,61.30
2022-10-05T17:21:02.039Z,71.30
2022-10-05T17:24:00.344Z,53.00
2022-10-05T17:26:46.103Z,33.40
2022-10-05T17:29:24.773Z,45.80
2022-10-05T17:32:33.004Z,39.10
2022-10-05T17:34:59.963Z,49.50
2022-10-05T17:37:26.599Z,99.80
2022-10-05T17:39:55.125Z,67.40
2022-10-05T17:42:30.920Z,55.70
2022-10-05T17:45:02.070Z,38.40
2022-10-05T17:48:05.503Z,24.30
2022-10-05T17:50:58.793Z,23.10
2022-10-05T17:53:53.504Z,25.90
2022-10-05T17:56:22.493Z,99.00
2022-10-05T17:58:54.011Z,35.70
2022-10-05T18:01:31.913Z,116.60
2022-10-05T18:04:10.944Z,40.50
2022-10-05T18:06:56.562Z,34.80
2022-10-05T18:09:24.128Z,32.70
2022-10-05T18:12:15.793Z,29.40
2022-10-05T18:15:02.505Z,31.80
2022-10-05T18:17:45.860Z,36.40
2022-10-05T18:20:34.147Z,48.40
2022-10-05T18:23:08.767Z,39.40
2022-10-05T18:25:44.774Z,35.10
2022-10-05T18:28:22.757Z,35.20
2022-10-05T18:31:27.758Z,36.10
2022-10-05T18:34:25.946Z,34.50
2022-10-05T18:37:17.160Z,30.70
2022-10-05T18:40:02.437Z,30.40
2022-10-05T18:42:55.263Z,35.80
2022-10-05T18:45:49.844Z,27.50
2022-10-05T18:48:40.512Z,26.80
2022-10-05T18:51:25.505Z,24.40
2022-10-05T18:54:35.830Z,17.70
2022-10-05T18:57:57.263Z,26.10
2022-10-05T19:00:31.117Z,40.80
2022-10-05T19:03:39.883Z,30.50
2022-10-05T19:06:25.699Z,19.10
2022-10-05T19:09:23.364Z,21.40
2022-10-05T19:12:30.624Z,26.50
2022-10-05T19:15:12.462Z,22.50
2022-10-05T19:17:55.864Z,21.40
2022-10-05T19:20:50.761Z,23.30
2022-10-05T19:23:42.185Z,25.70
2022-10-05T19:26:18.323Z,27.30
2022-10-05T19:29:16.025Z,34.50
2022-10-05T19:31:54.320Z,26.50
2022-10-05T19:34:45.268Z,23.50
2022-10-05T19:37:42.442Z,27.00
2022-10-05T19:40:25.919Z,26.00
2022-10-05T19:43:07.624Z,24.30
2022-10-05T19:45:43.675Z,20.90
2022-10-05T19:48:28.894Z,26.30
2022-10-05T19:51:00.957Z,22.60
2022-10-05T19:53:36.507Z,18.50
2022-10-05T19:56:29.455Z,15.80
2022-10-05T19:58:58.845Z,19.90
2022-10-05T20:01:36.471Z,21.00
2022-10-05T20:04:04.535Z,19.60
2022-10-05T20:06:31.265Z,17.90
2022-10-05T20:08:59.590Z,21.00
2022-10-05T20:11:27.986Z,19.20
2022-10-05T20:13:54.648Z,16.00
2022-10-05T20:19:50.846Z,15.50
2022-10-05T20:22:36.760Z,14.50
2022-10-05T20:25:28.249Z,17.20
2022-10-05T20:27:56.123Z,11.50
2022-10-05T20:30:28.091Z,16.70
2022-10-05T20:33:01.075Z,18.60
2022-10-05T20:35:30.035Z,17.60
2022-10-05T20:37:59.530Z,17.10
2022-10-05T20:40:28.568Z,20.30
2022-10-05T20:42:56.500Z,23.30
2022-10-05T20:45:23.346Z,17.50
2022-10-05T20:47:50.217Z,41.30
2022-10-05T20:50:17.398Z,30.30
2022-10-05T20:52:44.132Z,42.40
2022-10-05T20:55:12.015Z,40.50
2022-10-05T20:57:42.920Z,27.40
2022-10-05T21:00:11.737Z,22.10
2022-10-05T21:02:39.005Z,14.90
2022-10-05T21:05:07.097Z,18.60
2022-10-05T21:07:34.798Z,12.60
2022-10-05T21:10:03.179Z,10.60
2022-10-05T21:12:32.188Z,9.80
2022-10-05T21:14:59.354Z,9.40
2022-10-05T21:17:26.096Z,9.80
2022-10-05T21:19:52.906Z,14.40
2022-10-05T21:22:19.727Z,14.10
2022-10-05T21:24:46.757Z,15.40
2022-10-05T21:27:14.426Z,14.20
2022-10-05T21:29:41.131Z,13.80
2022-10-05T21:32:10.984Z,8.00
2022-10-05T21:34:38.810Z,9.20
2022-10-05T21:37:06.644Z,12.20
2022-10-05T21:39:34.666Z,9.10
2022-10-05T21:42:02.056Z,7.60
2022-10-05T21:44:28.782Z,11.20
2022-10-05T21:46:56.099Z,11.00
2022-10-05T21:49:23.931Z,15.80
2022-10-05T21:51:50.738Z,11.70
2022-10-05T21:54:20.704Z,11.40
2022-10-05T21:56:55.119Z,12.00
2022-10-05T21:59:26.697Z,11.40
2022-10-05T22:01:53.475Z,9.80
2022-10-05T22:04:20.449Z,13.90
2022-10-05T22:06:48.704Z,14.20
2022-10-05T22:09:15.437Z,13.20
2022-10-05T22:11:45.282Z,14.40
2022-10-05T22:14:14.513Z,10.20
2022-10-05T22:16:42.993Z,10.30
2022-10-05T22:19:17.203Z,9.80
2022-10-05T22:21:44.287Z,8.60
2022-10-05T22:24:11.095Z,10.60
2022-10-05T22:26:40.177Z,20.50
2022-10-05T22:29:07.218Z,18.80
2022-10-05T22:31:34.516Z,8.00
2022-10-05T22:34:01.379Z,10.60
2022-10-05T22:36:28.454Z,7.10
2022-10-05T22:38:55.212Z,7.70
2022-10-05T22:41:22.051Z,11.30
2022-10-05T22:43:50.454Z,10.70
2022-10-05T22:46:18.038Z,10.90
2022-10-05T22:48:45.191Z,6.70
2022-10-05T22:51:12.491Z,9.00
2022-10-05T22:53:39.454Z,15.50
2022-10-05T22:56:10.605Z,10.70
2022-10-05T22:58:37.862Z,8.00
2022-10-05T23:01:07.166Z,9.50
2022-10-05T23:03:34.769Z,5.70
2022-10-05T23:06:11.627Z,7.80
2022-10-05T23:08:39.676Z,7.90
2022-10-05T23:11:12.876Z,7.20
2022-10-05T23:13:41.454Z,7.40
2022-10-05T23:16:11.265Z,8.40
2022-10-05T23:18:38.511Z,9.10
2022-10-05T23:21:09.254Z,7.90
2022-10-05T23:23:37.893Z,6.90
2022-10-05T23:26:07.342Z,6.20
2022-10-05T23:28:34.463Z,5.40
2022-10-05T23:31:04.462Z,6.50
2022-10-05T23:33:32.145Z,5.50
2022-10-05T23:36:04.190Z,5.60
2022-10-05T23:38:32.136Z,5.80
2022-10-05T23:40:59.419Z,6.40
2022-10-05T23:43:27.003Z,7.20
2022-10-05T23:45:54.835Z,8.10
2022-10-05T23:48:22.325Z,6.20
2022-10-05T23:50:49.596Z,8.00
2022-10-05T23:53:17.762Z,6.50
2022-10-05T23:55:44.761Z,6.50
2022-10-05T23:58:12.023Z,5.50
